Viking, Canada
Current Conditions -  °F | °C
As of 11:00 PM on Wednesday 22 Oct 2014 (Local Time) from CYLL Reporting Station
Scattered Clouds Scattered Clouds  
Wind Chill: 38°   Ceiling: Unl
Heat Index: 45°   Visibility: 9mi
Dew Point: 32°   Wind: 13mph
Humidity: 61%   Direction: 140°SE
Pressure: 29.64"   Gusts: NA
Location:  53.08°N, 111.78°W
Report Text: CYLL 230500Z AUTO 14011KT 9SM SCT190 SCT220 07/00 A2964 RMK SLP051
Loading
Personal Weather Stations






























Interactive Weather Map
Tropical Storm Tracking
New forecast layout! Learn more

10-Day Weather Forecast

Advertisements
Track Severe Weather on mobile